createdAt,value
2019-04-10T00:01:36.091Z,9.33
2019-04-10T00:04:07.797Z,9.38
2019-04-10T00:06:39.575Z,9.13
2019-04-10T00:09:11.169Z,9.28
2019-04-10T00:11:43.151Z,9.08
2019-04-10T00:14:15.235Z,8.98
2019-04-10T00:16:48.815Z,9.18
2019-04-10T00:19:20.504Z,8.35
2019-04-10T00:21:52.385Z,8.53
2019-04-10T00:24:23.967Z,9.23
2019-04-10T00:26:56.441Z,9.00
2019-04-10T00:29:28.353Z,8.10
2019-04-10T00:32:02.149Z,8.53
2019-04-10T00:34:33.807Z,8.70
2019-04-10T00:37:05.868Z,8.35
2019-04-10T00:39:37.311Z,8.83
2019-04-10T00:42:08.547Z,8.90
2019-04-10T00:44:39.701Z,8.25
2019-04-10T00:47:12.848Z,8.33
2019-04-10T00:49:46.056Z,8.68
2019-04-10T00:52:17.559Z,8.38
2019-04-10T00:54:48.980Z,9.40
2019-04-10T00:57:21.318Z,8.60
2019-04-10T00:59:53.111Z,8.48
2019-04-10T01:02:24.791Z,8.53
2019-04-10T01:04:56.633Z,8.50
2019-04-10T01:07:36.658Z,8.80
2019-04-10T01:10:02.162Z,9.03
2019-04-10T01:12:35.078Z,9.08
2019-04-10T01:15:06.978Z,9.05
2019-04-10T01:17:40.182Z,8.05
2019-04-10T01:20:11.594Z,7.87
2019-04-10T01:22:43.451Z,8.43
2019-04-10T01:25:16.503Z,7.83
2019-04-10T01:27:48.077Z,8.48
2019-04-10T01:30:19.180Z,7.80
2019-04-10T01:32:50.726Z,8.38
2019-04-10T01:35:22.535Z,8.20
2019-04-10T01:37:59.143Z,8.28
2019-04-10T01:40:27.287Z,8.30
2019-04-10T01:43:06.960Z,8.20
2019-04-10T01:45:32.147Z,7.60
2019-04-10T01:48:04.140Z,7.65
2019-04-10T01:50:36.797Z,8.08
2019-04-10T01:53:09.156Z,8.23
2019-04-10T01:55:40.967Z,8.43
2019-04-10T01:58:19.079Z,9.08
2019-04-10T02:00:59.625Z,8.18
2019-04-10T02:03:30.935Z,8.43
2019-04-10T02:06:03.212Z,8.70
2019-04-10T02:08:34.754Z,8.25
2019-04-10T02:11:07.250Z,8.08
2019-04-10T02:13:39.342Z,8.35
2019-04-10T02:16:11.025Z,8.68
2019-04-10T02:18:43.744Z,8.23
2019-04-10T02:21:15.932Z,8.13
2019-04-10T02:23:47.480Z,8.10
2019-04-10T02:26:19.316Z,8.38
2019-04-10T02:28:51.441Z,8.08
2019-04-10T02:31:26.337Z,8.35
2019-04-10T02:33:59.912Z,8.28
2019-04-10T02:36:32.081Z,8.78
2019-04-10T02:39:15.164Z,8.45
2019-04-10T02:41:38.742Z,7.90
2019-04-10T02:44:12.227Z,8.30
2019-04-10T02:46:45.043Z,8.45
2019-04-10T02:49:16.493Z,8.38
2019-04-10T02:51:49.730Z,8.70
2019-04-10T02:54:21.508Z,8.70
2019-04-10T02:56:54.701Z,7.67
2019-04-10T02:59:27.080Z,8.40
2019-04-10T03:02:00.319Z,8.33
2019-04-10T03:04:33.051Z,8.45
2019-04-10T03:07:05.002Z,8.15
2019-04-10T03:09:49.778Z,8.38
2019-04-10T03:12:10.572Z,8.38
2019-04-10T03:14:45.962Z,8.23
2019-04-10T03:17:17.638Z,8.58
2019-04-10T03:19:50.516Z,8.28
2019-04-10T03:22:22.878Z,8.50
2019-04-10T03:24:54.755Z,8.83
2019-04-10T03:27:26.206Z,9.40
2019-04-10T03:29:58.123Z,9.90
2019-04-10T03:32:41.674Z,9.60
2019-04-10T03:35:18.707Z,10.95
2019-04-10T03:37:50.774Z,9.70
2019-04-10T03:40:23.695Z,9.35
2019-04-10T03:42:55.630Z,8.90
2019-04-10T03:45:28.518Z,9.63
2019-04-10T03:48:00.224Z,9.38
2019-04-10T03:50:32.030Z,9.43
2019-04-10T03:53:03.321Z,9.18
2019-04-10T03:55:36.832Z,9.98
2019-04-10T03:58:09.307Z,9.45
2019-04-10T04:00:40.890Z,9.05
2019-04-10T04:03:12.834Z,9.40
2019-04-10T04:05:44.649Z,10.60
2019-04-10T04:08:16.564Z,11.12
2019-04-10T04:10:48.949Z,11.00
2019-04-10T04:13:21.659Z,10.88
2019-04-10T04:15:53.401Z,10.15
2019-04-10T04:18:25.012Z,11.70
2019-04-10T04:20:56.402Z,10.23
2019-04-10T04:23:27.809Z,10.58
2019-04-10T04:25:59.681Z,10.60
2019-04-10T04:28:32.032Z,11.18
2019-04-10T04:31:05.197Z,11.00
2019-04-10T04:33:36.987Z,11.05
2019-04-10T04:36:08.267Z,10.68
2019-04-10T04:38:39.528Z,12.40
2019-04-10T04:41:11.698Z,11.03
2019-04-10T04:43:44.777Z,13.53
2019-04-10T04:46:18.375Z,12.28
2019-04-10T04:48:50.171Z,13.03
2019-04-10T04:51:21.939Z,11.03
2019-04-10T04:53:54.749Z,11.65
2019-04-10T04:56:26.268Z,10.98
2019-04-10T04:58:59.466Z,10.98
2019-04-10T05:01:31.848Z,10.43
2019-04-10T05:04:03.525Z,10.35
2019-04-10T05:06:36.901Z,10.48
2019-04-10T05:09:08.611Z,10.40
2019-04-10T05:11:40.617Z,9.15
2019-04-10T05:14:13.195Z,9.05
2019-04-10T05:16:45.653Z,9.88
2019-04-10T05:19:17.405Z,9.25
2019-04-10T05:21:49.603Z,9.55
2019-04-10T05:24:21.989Z,9.10
2019-04-10T05:26:53.654Z,9.43
2019-04-10T05:29:26.916Z,8.68
2019-04-10T05:31:58.755Z,8.53
2019-04-10T05:34:30.709Z,8.95
2019-04-10T05:37:03.136Z,9.13
2019-04-10T05:39:43.458Z,9.08
2019-04-10T05:42:08.516Z,8.78
2019-04-10T05:44:40.175Z,9.63
2019-04-10T05:47:11.910Z,10.27
2019-04-10T05:49:43.482Z,10.30
2019-04-10T05:52:15.058Z,10.07
2019-04-10T05:54:47.314Z,11.00
2019-04-10T05:57:20.153Z,10.10
2019-04-10T05:59:52.383Z,11.33
2019-04-10T06:02:23.680Z,9.63
2019-04-10T06:04:55.943Z,9.43
2019-04-10T06:07:27.718Z,9.77
2019-04-10T06:10:04.833Z,9.27
2019-04-10T06:12:34.166Z,9.23
2019-04-10T06:15:06.452Z,10.43
2019-04-10T06:17:39.147Z,9.50
2019-04-10T06:20:11.227Z,13.73
2019-04-10T06:22:43.994Z,18.43
2019-04-10T06:25:17.061Z,42.60
2019-04-10T06:27:50.483Z,44.60
2019-04-10T06:30:23.786Z,26.93
2019-04-10T06:32:55.752Z,19.63
2019-04-10T06:35:28.206Z,14.23
2019-04-10T06:38:00.371Z,12.27
2019-04-10T06:40:31.968Z,11.47
2019-04-10T06:43:04.327Z,9.50
2019-04-10T06:45:36.475Z,8.80
2019-04-10T06:48:08.929Z,9.47
2019-04-10T06:50:41.187Z,8.33
2019-04-10T06:53:15.774Z,8.97
2019-04-10T06:55:47.267Z,10.80
2019-04-10T06:58:20.108Z,8.93
2019-04-10T07:00:53.209Z,8.90
2019-04-10T07:03:28.930Z,8.17
2019-04-10T07:06:07.677Z,8.97
2019-04-10T07:08:32.051Z,8.87
2019-04-10T07:11:08.709Z,9.73
2019-04-10T07:13:39.868Z,10.63
2019-04-10T07:16:11.268Z,9.40
2019-04-10T07:18:45.875Z,9.30
2019-04-10T07:21:16.785Z,20.63
2019-04-10T07:23:49.023Z,12.17
2019-04-10T07:26:30.979Z,11.07
2019-04-10T07:28:54.447Z,9.60
2019-04-10T07:31:27.348Z,13.87
2019-04-10T07:33:59.971Z,11.83
2019-04-10T07:36:32.861Z,19.47
2019-04-10T07:39:05.484Z,17.73
2019-04-10T07:41:39.722Z,13.97
2019-04-10T07:44:12.062Z,12.57
2019-04-10T07:46:44.403Z,13.47
2019-04-10T07:49:18.266Z,12.97
2019-04-10T07:51:49.883Z,13.67
2019-04-10T07:54:22.591Z,12.67
2019-04-10T07:56:55.691Z,13.20
2019-04-10T07:59:27.379Z,13.37
2019-04-10T08:02:00.040Z,13.67
2019-04-10T08:04:31.689Z,14.20
2019-04-10T08:07:03.568Z,14.50
2019-04-10T08:09:35.602Z,14.73
2019-04-10T08:12:07.237Z,15.23
2019-04-10T08:14:39.699Z,15.63
2019-04-10T08:17:12.102Z,16.57
2019-04-10T08:19:43.701Z,16.20
2019-04-10T08:22:15.116Z,15.13
2019-04-10T08:24:47.289Z,16.00
2019-04-10T08:27:19.304Z,16.97
2019-04-10T08:29:52.317Z,16.20
2019-04-10T08:32:24.119Z,20.20
2019-04-10T08:34:56.259Z,17.97
2019-04-10T08:37:28.337Z,17.43
2019-04-10T08:39:59.888Z,15.77
2019-04-10T08:42:33.159Z,16.17
2019-04-10T08:45:07.105Z,16.80
2019-04-10T08:47:39.701Z,17.77
2019-04-10T08:50:11.883Z,18.33
2019-04-10T08:52:44.539Z,19.20
2019-04-10T08:55:17.630Z,18.23
2019-04-10T08:57:50.297Z,18.83
2019-04-10T09:00:22.643Z,18.10
2019-04-10T09:02:54.791Z,17.67
2019-04-10T09:05:26.565Z,19.20
2019-04-10T09:07:57.974Z,19.30
2019-04-10T09:10:30.270Z,20.00
2019-04-10T09:13:01.582Z,20.53
2019-04-10T09:15:34.014Z,19.87
2019-04-10T09:18:06.147Z,20.17
2019-04-10T09:20:38.506Z,20.90
2019-04-10T09:23:23.614Z,19.80
2019-04-10T09:25:43.821Z,20.50
2019-04-10T09:28:16.209Z,20.00
2019-04-10T09:30:49.004Z,20.87
2019-04-10T09:33:25.081Z,21.27
2019-04-10T09:35:55.114Z,20.33
2019-04-10T09:38:28.491Z,19.47
2019-04-10T09:40:59.864Z,20.33
2019-04-10T09:43:33.777Z,19.43
2019-04-10T09:46:06.463Z,20.13
2019-04-10T09:48:38.160Z,19.10
2019-04-10T09:51:09.962Z,18.73
2019-04-10T09:53:41.324Z,17.30
2019-04-10T09:56:14.500Z,17.70
2019-04-10T09:58:46.823Z,18.90
2019-04-10T10:01:19.955Z,18.73
2019-04-10T10:03:52.698Z,18.57
2019-04-10T10:06:29.913Z,17.27
2019-04-10T10:08:57.024Z,17.23
2019-04-10T10:11:29.210Z,18.17
2019-04-10T10:14:01.825Z,19.77
2019-04-10T10:16:33.819Z,19.40
2019-04-10T10:19:05.856Z,18.87
2019-04-10T10:21:38.718Z,19.63
2019-04-10T10:24:10.810Z,19.63
2019-04-10T10:26:45.003Z,18.83
2019-04-10T10:29:15.925Z,19.13
2019-04-10T10:31:49.791Z,19.07
2019-04-10T10:34:20.878Z,19.60
2019-04-10T10:36:53.290Z,18.87
2019-04-10T10:39:24.318Z,19.67
2019-04-10T10:41:56.497Z,18.37
2019-04-10T10:44:28.688Z,18.97
2019-04-10T10:47:00.097Z,17.37
2019-04-10T10:49:32.691Z,18.77
2019-04-10T10:52:06.853Z,20.33
2019-04-10T10:54:39.767Z,20.53
2019-04-10T10:57:11.689Z,20.65
2019-04-10T10:59:43.941Z,20.23
2019-04-10T11:02:17.023Z,19.40
2019-04-10T11:04:49.622Z,19.82
2019-04-10T11:07:21.207Z,19.67
2019-04-10T11:09:54.339Z,19.27
2019-04-10T11:12:26.566Z,18.73
2019-04-10T11:14:58.090Z,20.02
2019-04-10T11:17:29.874Z,19.05
2019-04-10T11:20:02.294Z,18.48
2019-04-10T11:22:35.505Z,18.53
2019-04-10T11:25:08.075Z,18.03
2019-04-10T11:27:39.593Z,18.13
2019-04-10T11:30:12.534Z,17.97
2019-04-10T11:32:44.502Z,17.90
2019-04-10T11:35:17.424Z,18.03
2019-04-10T11:37:51.480Z,17.97
2019-04-10T11:40:23.562Z,14.77
2019-04-10T11:42:57.636Z,15.40
2019-04-10T11:45:37.981Z,15.63
2019-04-10T11:48:03.596Z,15.83
2019-04-10T11:50:35.265Z,15.20
2019-04-10T11:53:09.598Z,15.50
2019-04-10T11:55:47.487Z,15.50
2019-04-10T11:58:15.575Z,13.63
2019-04-10T12:03:22.091Z,13.80
2019-04-10T12:05:55.549Z,15.13
2019-04-10T12:08:50.048Z,14.60
2019-04-10T12:13:30.618Z,14.83
2019-04-10T12:16:03.009Z,14.77
2019-04-10T12:18:35.129Z,16.63
2019-04-10T12:21:07.667Z,14.63
2019-04-10T12:23:39.341Z,14.37
2019-04-10T12:26:11.648Z,14.27
2019-04-10T12:28:44.384Z,15.03
2019-04-10T12:31:15.780Z,14.17
2019-04-10T12:33:47.708Z,13.57
2019-04-10T12:36:20.518Z,14.90
2019-04-10T12:38:52.249Z,14.43
2019-04-10T12:41:23.867Z,14.80
2019-04-10T12:43:55.394Z,14.17
2019-04-10T12:46:27.078Z,15.03
2019-04-10T12:49:01.052Z,14.80
2019-04-10T12:51:32.222Z,14.37
2019-04-10T12:54:04.651Z,15.20
2019-04-10T12:56:35.674Z,14.50
2019-04-10T12:59:07.502Z,15.23
2019-04-10T13:01:40.693Z,13.77
2019-04-10T13:04:13.831Z,14.70
2019-04-10T13:06:46.316Z,15.53
2019-04-10T13:09:17.960Z,14.87
2019-04-10T13:11:50.991Z,14.03
2019-04-10T13:14:22.833Z,15.77
2019-04-10T13:16:54.296Z,13.30
2019-04-10T13:19:27.052Z,15.27
2019-04-10T13:21:59.961Z,16.37
2019-04-10T13:24:31.701Z,14.93
2019-04-10T13:27:04.032Z,14.37
2019-04-10T13:29:36.378Z,14.23
2019-04-10T13:32:08.391Z,16.10
2019-04-10T13:34:39.984Z,16.40
2019-04-10T13:37:12.376Z,16.70
2019-04-10T13:39:43.804Z,15.30
2019-04-10T13:42:16.818Z,16.00
2019-04-10T13:44:48.940Z,14.40
2019-04-10T13:47:21.776Z,14.33
2019-04-10T13:49:54.516Z,14.50
2019-04-10T13:52:26.012Z,14.57
2019-04-10T13:54:57.611Z,14.23
2019-04-10T13:57:28.995Z,14.67
2019-04-10T14:00:01.736Z,13.93
2019-04-10T14:02:37.511Z,14.03
2019-04-10T14:05:11.837Z,14.70
2019-04-10T14:07:44.303Z,14.90
2019-04-10T14:10:18.698Z,15.87
2019-04-10T14:12:51.391Z,14.60
2019-04-10T14:15:24.309Z,13.67
2019-04-10T14:17:56.133Z,13.63
2019-04-10T14:20:29.001Z,14.53
2019-04-10T14:23:26.510Z,13.13
2019-04-10T14:26:41.908Z,13.17
2019-04-10T14:29:15.076Z,13.87
2019-04-10T14:31:56.598Z,13.40
2019-04-10T14:34:30.317Z,14.67
2019-04-10T14:37:03.209Z,14.07
2019-04-10T14:39:35.939Z,12.50
2019-04-10T14:42:08.668Z,11.83
2019-04-10T14:44:41.035Z,11.90
2019-04-10T14:47:13.476Z,12.20
2019-04-10T14:49:45.206Z,12.23
2019-04-10T14:52:16.914Z,11.17
2019-04-10T14:54:50.293Z,11.87
2019-04-10T14:57:23.177Z,10.67
2019-04-10T14:59:56.038Z,10.73
2019-04-10T15:02:27.422Z,12.13
2019-04-10T15:04:59.742Z,9.57
2019-04-10T15:07:31.822Z,9.95
2019-04-10T15:10:03.654Z,10.65
2019-04-10T15:12:35.003Z,10.43
2019-04-10T15:15:06.483Z,9.95
2019-04-10T15:17:38.317Z,10.45
2019-04-10T15:20:11.139Z,10.27
2019-04-10T15:22:42.498Z,11.53
2019-04-10T15:25:15.058Z,10.00
2019-04-10T15:27:46.809Z,11.13
2019-04-10T15:30:18.479Z,11.23
2019-04-10T15:32:50.169Z,10.77
2019-04-10T15:35:21.832Z,10.23
2019-04-10T15:37:53.482Z,10.27
2019-04-10T15:40:26.927Z,9.67
2019-04-10T15:42:58.884Z,10.40
2019-04-10T15:45:30.533Z,8.83
2019-04-10T15:48:03.238Z,9.40
2019-04-10T15:50:35.522Z,8.40
2019-04-10T15:53:07.623Z,9.30
2019-04-10T15:55:40.218Z,8.73
2019-04-10T15:58:12.327Z,8.50
2019-04-10T16:00:45.429Z,8.23
2019-04-10T16:03:17.538Z,9.10
2019-04-10T16:05:48.652Z,8.53
2019-04-10T16:08:21.913Z,8.43
2019-04-10T16:11:11.864Z,7.73
2019-04-10T16:13:46.398Z,8.07
2019-04-10T16:16:40.308Z,8.97
2019-04-10T16:19:30.947Z,8.30
2019-04-10T16:22:04.314Z,8.05
2019-04-10T16:24:36.636Z,8.78
2019-04-10T16:27:08.606Z,8.25
2019-04-10T16:29:40.684Z,7.58
2019-04-10T16:32:12.904Z,8.15
2019-04-10T16:34:45.011Z,7.55
2019-04-10T16:37:18.709Z,8.00
2019-04-10T16:39:58.513Z,8.33
2019-04-10T16:42:22.912Z,7.90
2019-04-10T16:44:54.554Z,8.08
2019-04-10T16:47:26.090Z,7.90
2019-04-10T16:49:57.738Z,7.40
2019-04-10T16:52:29.416Z,7.33
2019-04-10T16:55:01.046Z,7.60
2019-04-10T16:57:34.580Z,8.60
2019-04-10T17:00:07.024Z,8.00
2019-04-10T17:02:38.509Z,7.75
2019-04-10T17:05:10.576Z,8.03
2019-04-10T17:07:41.587Z,8.25
2019-04-10T17:10:21.255Z,7.45
2019-04-10T17:12:48.139Z,7.25
2019-04-10T17:15:20.079Z,7.78
2019-04-10T17:17:52.663Z,8.93
2019-04-10T17:20:26.535Z,8.63
2019-04-10T17:22:58.726Z,7.45
2019-04-10T17:25:30.613Z,8.00
2019-04-10T17:28:03.757Z,7.50
2019-04-10T17:30:35.937Z,7.90
2019-04-10T17:33:08.871Z,7.95
2019-04-10T17:35:40.209Z,7.97
2019-04-10T17:38:12.213Z,9.28
2019-04-10T17:40:50.184Z,7.53
2019-04-10T17:43:17.346Z,7.60
2019-04-10T17:45:48.977Z,7.05
2019-04-10T17:48:21.884Z,7.58
2019-04-10T17:50:53.421Z,7.95
2019-04-10T17:53:25.298Z,7.08
2019-04-10T17:55:58.019Z,7.00
2019-04-10T17:58:29.689Z,7.12
2019-04-10T18:01:03.952Z,7.08
2019-04-10T18:03:46.024Z,7.22
2019-04-10T18:06:09.661Z,7.70
2019-04-10T18:08:41.225Z,6.90
2019-04-10T18:11:14.156Z,6.83
2019-04-10T18:13:46.872Z,7.35
2019-04-10T18:16:19.954Z,7.20
2019-04-10T18:18:53.875Z,7.35
2019-04-10T18:21:25.324Z,7.95
2019-04-10T18:23:57.882Z,7.85
2019-04-10T18:26:29.931Z,8.60
2019-04-10T18:29:02.413Z,8.05
2019-04-10T18:31:34.801Z,8.13
2019-04-10T18:34:09.631Z,7.30
2019-04-10T18:36:40.538Z,7.90
2019-04-10T18:39:15.730Z,8.00
2019-04-10T18:41:49.205Z,9.05
2019-04-10T18:44:21.143Z,10.75
2019-04-10T18:46:52.737Z,9.50
2019-04-10T18:49:24.290Z,9.20
2019-04-10T18:51:56.377Z,9.23
2019-04-10T18:54:27.903Z,8.95
2019-04-10T18:56:59.868Z,12.23
2019-04-10T18:59:37.702Z,11.55
2019-04-10T19:02:41.204Z,11.00
2019-04-10T19:05:23.514Z,10.53
2019-04-10T19:07:55.292Z,11.35
2019-04-10T19:10:26.890Z,13.68
2019-04-10T19:12:59.515Z,11.30
2019-04-10T19:15:32.654Z,13.80
2019-04-10T19:18:05.651Z,9.30
2019-04-10T19:20:38.871Z,9.38
2019-04-10T19:23:11.180Z,8.00
2019-04-10T19:25:43.363Z,8.08
2019-04-10T19:28:27.996Z,7.60
2019-04-10T19:31:09.579Z,9.23
2019-04-10T19:33:31.205Z,7.97
2019-04-10T19:36:03.643Z,8.78
2019-04-10T19:38:36.212Z,8.53
2019-04-10T19:41:21.278Z,8.60
2019-04-10T19:43:42.273Z,11.97
2019-04-10T19:46:13.844Z,12.23
2019-04-10T19:48:48.440Z,13.18
2019-04-10T19:51:18.669Z,12.03
2019-04-10T19:53:51.232Z,13.95
2019-04-10T19:56:22.871Z,13.48
2019-04-10T19:58:54.505Z,10.43
2019-04-10T20:01:28.581Z,9.30
2019-04-10T20:03:59.609Z,9.40
2019-04-10T20:06:32.223Z,8.83
2019-04-10T20:09:06.330Z,9.28
2019-04-10T20:11:44.460Z,8.90
2019-04-10T20:14:13.747Z,8.38
2019-04-10T20:16:44.549Z,8.30
2019-04-10T20:19:17.162Z,8.33
2019-04-10T20:21:48.987Z,7.67
2019-04-10T20:24:20.800Z,8.73
2019-04-10T20:26:52.400Z,8.25
2019-04-10T20:29:24.218Z,9.03
2019-04-10T20:31:57.476Z,10.00
2019-04-10T20:34:29.590Z,9.78
2019-04-10T20:37:05.962Z,10.72
2019-04-10T20:39:34.284Z,10.25
2019-04-10T20:42:06.177Z,9.28
2019-04-10T20:44:37.669Z,8.20
2019-04-10T20:47:10.791Z,8.50
2019-04-10T20:49:43.225Z,7.45
2019-04-10T20:52:14.703Z,7.87
2019-04-10T20:54:46.874Z,8.20
2019-04-10T20:57:19.413Z,8.35
2019-04-10T20:59:51.400Z,7.95
2019-04-10T21:02:24.625Z,7.60
2019-04-10T21:05:01.325Z,7.97
2019-04-10T21:07:29.884Z,7.22
2019-04-10T21:10:01.181Z,7.97
2019-04-10T21:12:32.686Z,7.33
2019-04-10T21:15:03.773Z,8.08
2019-04-10T21:17:35.742Z,7.15
2019-04-10T21:20:08.024Z,8.30
2019-04-10T21:22:40.391Z,8.05
2019-04-10T21:25:12.198Z,7.25
2019-04-10T21:27:44.094Z,6.97
2019-04-10T21:30:28.738Z,7.83
2019-04-10T21:33:19.012Z,9.08
2019-04-10T21:35:50.561Z,8.30
2019-04-10T21:38:21.920Z,8.83
2019-04-10T21:40:53.498Z,9.80
2019-04-10T21:43:24.552Z,11.05
2019-04-10T21:45:57.474Z,10.70
2019-04-10T21:48:30.975Z,10.82
2019-04-10T21:51:02.598Z,8.68
2019-04-10T21:53:36.003Z,7.92
2019-04-10T21:56:08.448Z,8.83
2019-04-10T21:58:40.837Z,8.30
2019-04-10T22:01:14.047Z,7.75
2019-04-10T22:03:45.586Z,7.83
2019-04-10T22:06:38.267Z,8.03
2019-04-10T22:09:28.618Z,8.40
2019-04-10T22:12:03.636Z,8.23
2019-04-10T22:14:35.658Z,8.08
2019-04-10T22:17:08.853Z,8.20
2019-04-10T22:19:40.988Z,8.80
2019-04-10T22:22:12.784Z,8.95
2019-04-10T22:24:44.734Z,8.48
2019-04-10T22:27:17.054Z,7.83
2019-04-10T22:29:48.697Z,8.13
2019-04-10T22:32:20.630Z,8.00
2019-04-10T22:34:52.809Z,7.87
2019-04-10T22:37:23.843Z,7.83
2019-04-10T22:39:56.600Z,7.92
2019-04-10T22:42:39.027Z,8.05
2019-04-10T22:45:02.572Z,8.68
2019-04-10T22:47:35.887Z,7.92
2019-04-10T22:50:08.581Z,8.63
2019-04-10T22:52:40.757Z,8.10
2019-04-10T22:55:12.658Z,9.40
2019-04-10T22:57:44.238Z,8.90
2019-04-10T23:00:22.259Z,7.87
2019-04-10T23:02:55.566Z,8.05
2019-04-10T23:05:27.138Z,8.40
2019-04-10T23:07:59.102Z,9.13
2019-04-10T23:10:30.430Z,8.85
2019-04-10T23:13:05.330Z,8.80
2019-04-10T23:15:35.661Z,8.18
2019-04-10T23:18:07.546Z,8.15
2019-04-10T23:20:39.729Z,7.55
2019-04-10T23:23:11.683Z,8.05
2019-04-10T23:25:43.327Z,8.05
2019-04-10T23:28:15.602Z,7.87
2019-04-10T23:30:48.648Z,8.20
2019-04-10T23:33:20.431Z,8.45
2019-04-10T23:35:52.319Z,8.65
2019-04-10T23:38:23.862Z,8.20
2019-04-10T23:40:56.950Z,7.37
2019-04-10T23:43:29.461Z,9.08
2019-04-10T23:46:02.075Z,8.80
2019-04-10T23:48:35.027Z,9.03
2019-04-10T23:51:07.081Z,7.83
2019-04-10T23:53:40.467Z,8.20
2019-04-10T23:56:11.835Z,8.05
2019-04-10T23:58:44.440Z,9.03
